Time;durP1;ratioP1;P1;durP2;ratioP2;P2;SDS_P1;SDS_P2;PMS_P1;PMS_P2;Temp;Humidity;BMP_temperature;BMP_pressure;BME280_temperature;BME280_humidity;BME280_pressure;Samples;Min_cycle;Max_cycle;Signal;HPM_P1;HPM_P2
2022/09/26 00:00:35;;;;;;;5.43;1.98;;;17.00;91.70;;;;;;5032499;28;20026;-69
2022/09/26 00:03:01;;;;;;;5.18;1.75;;;17.00;91.80;;;;;;5032700;28;20485;-69
2022/09/26 00:05:27;;;;;;;9.85;2.22;;;17.00;91.90;;;;;;5032861;28;20063;-69
2022/09/26 00:07:53;;;;;;;7.82;2.40;;;16.90;91.90;;;;;;5032720;28;20058;-70
2022/09/26 00:10:18;;;;;;;4.05;2.03;;;16.90;91.90;;;;;;5032747;28;20463;-69
2022/09/26 00:12:44;;;;;;;6.25;2.17;;;16.90;91.80;;;;;;5032785;28;20043;-70
2022/09/26 00:15:10;;;;;;;7.75;2.15;;;17.00;91.60;;;;;;5032401;28;20056;-69
2022/09/26 00:17:36;;;;;;;8.00;2.53;;;17.00;91.60;;;;;;5032602;28;20037;-69
2022/09/26 00:20:01;;;;;;;3.92;1.98;;;17.10;91.40;;;;;;5032596;28;20113;-70
2022/09/26 00:22:27;;;;;;;4.90;2.28;;;17.00;91.30;;;;;;5032877;28;20030;-69
2022/09/26 00:24:53;;;;;;;6.15;2.15;;;17.00;91.40;;;;;;5031025;28;20112;-70
2022/09/26 00:27:19;;;;;;;4.90;2.20;;;17.00;91.30;;;;;;5033212;28;20092;-69
2022/09/26 00:29:45;;;;;;;6.63;2.33;;;17.00;91.30;;;;;;5026621;28;20063;-68
2022/09/26 00:32:10;;;;;;;5.55;2.30;;;17.00;91.20;;;;;;5025130;28;20017;-68
2022/09/26 00:34:36;;;;;;;11.38;2.05;;;17.00;90.90;;;;;;5030000;28;20509;-69
2022/09/26 00:37:02;;;;;;;4.63;1.83;;;17.00;90.80;;;;;;5030265;28;20029;-68
2022/09/26 00:39:27;;;;;;;5.80;1.90;;;17.00;90.80;;;;;;5034893;28;20034;-69
2022/09/26 00:41:53;;;;;;;6.32;1.83;;;17.00;90.80;;;;;;5036085;28;20017;-68
2022/09/26 00:44:49;;;;;;;11.00;2.50;;;17.00;90.50;;;;;;5035415;28;20026;-69
2022/09/26 00:47:35;;;;;;;5.40;2.05;;;17.00;90.60;;;;;;5036002;28;20077;-69
2022/09/26 00:50:07;;;;;;;8.43;2.65;;;17.00;90.50;;;;;;5036010;28;20555;-69
2022/09/26 00:52:41;;;;;;;7.05;1.92;;;17.00;90.20;;;;;;5034921;28;20028;-68
2022/09/26 00:55:12;;;;;;;4.72;1.48;;;17.00;89.80;;;;;;5035958;28;20383;-68
2022/09/26 00:57:44;;;;;;;7.22;2.08;;;17.00;89.70;;;;;;5035651;28;20618;-69
2022/09/26 01:00:13;;;;;;;5.50;1.70;;;16.90;89.80;;;;;;5035502;28;20144;-69
2022/09/26 01:02:40;;;;;;;4.30;1.58;;;16.90;89.50;;;;;;5035993;28;20072;-69
2022/09/26 01:05:06;;;;;;;6.43;2.00;;;17.00;89.00;;;;;;5035720;28;20022;-69
2022/09/26 01:07:33;;;;;;;4.82;1.95;;;17.00;88.90;;;;;;5035545;28;20021;-69
2022/09/26 01:10:01;;;;;;;4.60;1.90;;;17.00;89.00;;;;;;5035796;28;20097;-69
2022/09/26 01:12:27;;;;;;;5.57;1.77;;;16.90;88.80;;;;;;5034552;28;20029;-69
2022/09/26 01:14:53;;;;;;;4.22;1.50;;;17.00;88.70;;;;;;5034950;28;20097;-69
2022/09/26 01:17:21;;;;;;;6.38;1.88;;;16.90;88.60;;;;;;5035539;28;20041;-69
2022/09/26 01:20:12;;;;;;;6.47;2.15;;;16.90;88.80;;;;;;5035317;28;20022;-70
2022/09/26 01:22:52;;;;;;;4.53;1.60;;;16.80;89.10;;;;;;5035502;28;20067;-69
2022/09/26 01:25:50;;;;;;;6.93;1.95;;;16.90;88.80;;;;;;5035348;28;20029;-69
2022/09/26 01:29:01;;;;;;;3.10;1.55;;;17.00;88.60;;;;;;5034171;28;20042;-69
2022/09/26 01:31:40;;;;;;;6.05;1.15;;;17.00;88.50;;;;;;5035204;28;20029;-69
2022/09/26 01:34:27;;;;;;;6.63;1.83;;;17.10;88.10;;;;;;5035257;28;20018;-70
2022/09/26 01:37:06;;;;;;;4.20;1.38;;;16.90;88.40;;;;;;5034925;28;20061;-70
2022/09/26 01:39:35;;;;;;;5.40;1.58;;;17.00;88.20;;;;;;5035203;28;20045;-69
2022/09/26 01:42:25;;;;;;;4.55;1.60;;;17.00;88.40;;;;;;5035212;28;20021;-70
2022/09/26 01:44:58;;;;;;;4.10;1.20;;;17.00;88.30;;;;;;5034537;28;20040;-70
2022/09/26 01:47:47;;;;;;;4.10;1.77;;;17.00;88.10;;;;;;5035135;28;20025;-70
2022/09/26 01:50:40;;;;;;;3.78;1.63;;;17.00;87.90;;;;;;5034238;28;20045;-70
2022/09/26 01:53:20;;;;;;;4.80;1.63;;;17.00;87.90;;;;;;5034967;28;20079;-69
2022/09/26 01:55:58;;;;;;;5.70;1.33;;;17.00;87.70;;;;;;5034587;28;20014;-70
2022/09/26 01:58:26;;;;;;;5.70;1.50;;;16.90;87.70;;;;;;5034470;28;20029;-69
2022/09/26 02:00:57;;;;;;;3.67;1.05;;;17.10;87.50;;;;;;5034404;28;20355;-69
2022/09/26 02:03:28;;;;;;;4.55;0.90;;;17.00;87.50;;;;;;5034868;28;20013;-69
2022/09/26 02:05:56;;;;;;;7.85;1.38;;;17.00;87.50;;;;;;5034467;28;20057;-70
2022/09/26 02:08:32;;;;;;;4.07;1.17;;;16.90;87.70;;;;;;5034509;28;20053;-69
2022/09/26 02:11:03;;;;;;;4.13;1.15;;;16.90;87.50;;;;;;5034383;28;20060;-70
2022/09/26 02:13:43;;;;;;;4.53;1.40;;;17.00;87.40;;;;;;5033412;28;20021;-70
2022/09/26 02:16:18;;;;;;;4.05;1.30;;;16.90;87.50;;;;;;5034134;28;20032;-69
2022/09/26 02:18:49;;;;;;;3.38;1.27;;;16.90;87.40;;;;;;5034357;28;20033;-69
2022/09/26 02:21:18;;;;;;;2.80;1.13;;;16.90;87.50;;;;;;5034250;28;20064;-70
2022/09/26 02:23:45;;;;;;;3.55;1.15;;;16.90;87.40;;;;;;5034374;28;20028;-69
2022/09/26 02:26:10;;;;;;;9.05;1.60;;;16.90;87.40;;;;;;5033872;28;20029;-69
2022/09/26 02:28:36;;;;;;;4.70;0.90;;;16.90;87.30;;;;;;5034216;28;20033;-69
2022/09/26 02:31:03;;;;;;;4.00;1.38;;;16.80;87.30;;;;;;5033774;28;20056;-70
2022/09/26 02:33:29;;;;;;;6.75;1.33;;;16.80;87.70;;;;;;5034375;28;20489;-69
2022/09/26 02:35:56;;;;;;;3.10;0.90;;;16.80;87.60;;;;;;5034091;28;20087;-69
2022/09/26 02:38:26;;;;;;;7.30;1.65;;;16.90;87.70;;;;;;5034047;28;20144;-69
2022/09/26 02:41:06;;;;;;;4.93;1.27;;;16.80;87.90;;;;;;5033532;28;20075;-69
2022/09/26 02:44:00;;;;;;;5.60;1.00;;;16.80;88.10;;;;;;5034134;28;20035;-70
2022/09/26 02:46:28;;;;;;;2.83;1.13;;;16.90;87.70;;;;;;5033747;28;20044;-70
2022/09/26 02:49:13;;;;;;;6.97;1.20;;;16.90;87.50;;;;;;5033829;28;20061;-69
2022/09/26 02:52:07;;;;;;;3.90;1.20;;;17.00;87.40;;;;;;5033583;28;20024;-69
2022/09/26 02:55:07;;;;;;;8.10;1.75;;;17.10;87.60;;;;;;5033516;28;20026;-68
2022/09/26 02:57:39;;;;;;;6.90;1.30;;;16.90;87.60;;;;;;5033694;28;20064;-69
2022/09/26 03:00:15;;;;;;;6.55;1.08;;;16.90;87.50;;;;;;5033562;28;20034;-70
2022/09/26 03:03:11;;;;;;;6.03;1.23;;;16.80;88.20;;;;;;5033107;28;20075;-70
2022/09/26 03:05:41;;;;;;;5.38;1.20;;;16.80;88.50;;;;;;5034188;28;20108;-69
2022/09/26 03:08:19;;;;;;;6.85;1.73;;;16.80;88.70;;;;;;5032008;28;20060;-69
2022/09/26 03:10:47;;;;;;;6.55;1.25;;;16.80;88.90;;;;;;5033288;28;20018;-70
2022/09/26 03:13:15;;;;;;;5.15;1.48;;;16.70;89.20;;;;;;5033373;28;20033;-70
2022/09/26 03:15:46;;;;;;;5.07;1.20;;;16.80;89.50;;;;;;5033686;28;20022;-69
2022/09/26 03:18:17;;;;;;;4.28;1.10;;;16.80;89.50;;;;;;5033200;28;20033;-70
2022/09/26 03:20:43;;;;;;;4.10;1.30;;;16.80;89.90;;;;;;5033328;28;20077;-69
2022/09/26 03:23:09;;;;;;;5.60;1.70;;;16.80;90.00;;;;;;5033224;28;20489;-69
2022/09/26 03:25:34;;;;;;;12.65;2.17;;;16.90;90.00;;;;;;5033094;28;20026;-69
2022/09/26 03:28:01;;;;;;;5.95;1.88;;;16.80;90.00;;;;;;5033035;28;20025;-69
2022/09/26 03:30:28;;;;;;;5.05;1.85;;;16.70;90.20;;;;;;5033241;28;20474;-70
2022/09/26 03:32:54;;;;;;;5.85;2.28;;;16.70;90.00;;;;;;5033210;28;20096;-69
2022/09/26 03:35:20;;;;;;;6.97;2.60;;;16.90;90.00;;;;;;5033252;28;20104;-69
2022/09/26 03:37:46;;;;;;;4.10;2.42;;;16.90;89.90;;;;;;5032798;28;20032;-68
2022/09/26 03:40:12;;;;;;;8.85;2.50;;;16.70;90.20;;;;;;5032879;28;20379;-69
2022/09/26 03:42:38;;;;;;;4.80;2.67;;;16.70;90.10;;;;;;5033065;28;20079;-69
2022/09/26 03:45:07;;;;;;;8.30;2.83;;;16.70;90.20;;;;;;5033356;28;20033;-70
2022/09/26 03:47:34;;;;;;;3.47;2.33;;;16.70;90.20;;;;;;5032893;28;20049;-70
2022/09/26 03:50:00;;;;;;;4.53;2.40;;;16.60;90.30;;;;;;5032638;28;20566;-70
2022/09/26 03:52:25;;;;;;;4.07;2.40;;;16.60;90.40;;;;;;5032914;28;20028;-70
2022/09/26 03:54:52;;;;;;;5.25;2.22;;;16.80;90.20;;;;;;5032715;28;20104;-69
2022/09/26 03:57:18;;;;;;;7.63;2.45;;;16.80;90.20;;;;;;5033037;28;20029;-69
2022/09/26 03:59:44;;;;;;;7.78;2.10;;;16.80;90.10;;;;;;5032940;28;20363;-69
2022/09/26 04:02:10;;;;;;;4.07;2.42;;;16.80;90.20;;;;;;5032643;28;20536;-69
2022/09/26 04:04:35;;;;;;;6.15;2.20;;;16.80;90.20;;;;;;5032945;28;20053;-70
2022/09/26 04:07:01;;;;;;;7.18;2.00;;;16.80;90.20;;;;;;5031492;28;20053;-70
2022/09/26 04:09:26;;;;;;;5.50;2.28;;;16.80;90.30;;;;;;5032661;28;20101;-70
2022/09/26 04:11:53;;;;;;;4.55;1.52;;;16.70;90.40;;;;;;5032694;28;20022;-70
2022/09/26 04:14:18;;;;;;;3.83;1.73;;;16.70;90.30;;;;;;5036976;28;20462;-70
2022/09/26 04:16:45;;;;;;;7.35;2.03;;;16.70;90.30;;;;;;5036715;28;20064;-70
2022/09/26 04:19:12;;;;;;;4.35;1.85;;;16.70;90.30;;;;;;5036431;28;20480;-69
2022/09/26 04:21:39;;;;;;;5.30;1.65;;;16.70;90.30;;;;;;5036852;28;20041;-69
2022/09/26 04:24:06;;;;;;;5.72;1.83;;;16.70;90.20;;;;;;5036453;28;20463;-69
2022/09/26 04:26:31;;;;;;;4.40;2.17;;;16.60;90.30;;;;;;5036541;28;20018;-70
2022/09/26 04:28:57;;;;;;;6.47;2.15;;;16.70;90.20;;;;;;5036424;28;20040;-70
2022/09/26 04:31:26;;;;;;;5.22;1.73;;;16.70;90.10;;;;;;5036331;28;20017;-70
2022/09/26 04:33:53;;;;;;;4.80;1.60;;;16.70;90.00;;;;;;5035316;28;20109;-70
2022/09/26 04:36:19;;;;;;;4.78;1.75;;;16.70;90.20;;;;;;5036481;28;20110;-70
2022/09/26 04:38:45;;;;;;;6.78;2.17;;;16.70;90.20;;;;;;5036388;28;20423;-70
2022/09/26 04:41:13;;;;;;;4.05;1.90;;;16.70;90.20;;;;;;5024506;28;20022;-69
2022/09/26 04:43:39;;;;;;;3.95;1.70;;;16.70;90.20;;;;;;5017404;28;20037;-68
2022/09/26 04:46:15;;;;;;;4.55;1.60;;;16.60;90.40;;;;;;5020732;28;20037;-69
2022/09/26 04:48:41;;;;;;;6.30;1.70;;;16.50;90.40;;;;;;5033985;28;20029;-68
2022/09/26 04:51:10;;;;;;;5.57;1.73;;;16.50;90.50;;;;;;5026699;28;20052;-70
2022/09/26 04:53:37;;;;;;;4.50;1.60;;;16.50;91.00;;;;;;5018571;28;20088;-70
2022/09/26 04:56:08;;;;;;;4.97;1.40;;;16.70;90.70;;;;;;5033955;28;20049;-69
2022/09/26 04:58:38;;;;;;;2.50;0.98;;;16.70;90.50;;;;;;5036047;28;20057;-69
2022/09/26 05:01:05;;;;;;;4.70;1.67;;;16.70;90.30;;;;;;5029058;28;20105;-69
2022/09/26 05:03:31;;;;;;;5.70;1.20;;;16.70;90.40;;;;;;5022841;28;20038;-70
2022/09/26 05:05:57;;;;;;;11.90;1.60;;;16.70;90.20;;;;;;5014102;28;20433;-69
2022/09/26 05:08:23;;;;;;;6.72;1.58;;;16.70;90.70;;;;;;5016735;28;20418;-69
2022/09/26 05:10:53;;;;;;;5.65;1.67;;;16.80;90.60;;;;;;5034944;28;20029;-69
2022/09/26 05:13:20;;;;;;;2.58;1.30;;;16.60;90.70;;;;;;5035278;28;20036;-69
2022/09/26 05:15:46;;;;;;;4.70;1.13;;;16.60;90.60;;;;;;5035425;28;20026;-69
2022/09/26 05:18:12;;;;;;;6.35;1.95;;;16.60;90.90;;;;;;5035111;28;20040;-69
2022/09/26 05:20:39;;;;;;;4.32;1.60;;;16.50;90.70;;;;;;5025335;28;20009;-68
2022/09/26 05:23:08;;;;;;;5.28;1.35;;;16.50;90.80;;;;;;5012002;28;20029;-67
2022/09/26 05:28:25;;;;;;;2.78;1.40;;;16.50;90.80;;;;;;5009924;28;20096;-69
2022/09/26 05:30:51;;;;;;;6.63;1.30;;;16.60;90.70;;;;;;5019201;28;20022;-68
2022/09/26 05:33:20;;;;;;;4.60;1.35;;;16.60;90.80;;;;;;5017903;28;20038;-69
2022/09/26 05:35:52;;;;;;;6.05;2.03;;;16.70;90.60;;;;;;5030175;28;20533;-69
2022/09/26 05:38:17;;;;;;;3.75;1.27;;;16.50;90.70;;;;;;5015445;28;20049;-69
2022/09/26 05:40:55;;;;;;;4.10;1.27;;;16.60;90.70;;;;;;5027161;28;20025;-70
2022/09/26 05:43:22;;;;;;;7.75;1.20;;;16.60;90.80;;;;;;5032760;28;20128;-69
2022/09/26 05:45:49;;;;;;;4.65;1.40;;;16.60;90.80;;;;;;5016156;28;20117;-70
2022/09/26 05:48:16;;;;;;;3.92;1.30;;;16.50;91.00;;;;;;5027886;28;20034;-68
2022/09/26 05:50:42;;;;;;;5.47;1.10;;;16.60;91.00;;;;;;5018895;28;20352;-69
2022/09/26 05:53:09;;;;;;;3.60;1.30;;;16.50;90.90;;;;;;5018499;28;20084;-70
2022/09/26 05:55:36;;;;;;;5.10;1.52;;;16.40;91.00;;;;;;5013469;28;20029;-71
2022/09/26 05:58:02;;;;;;;2.80;0.80;;;16.40;91.10;;;;;;5014787;28;20111;-69
2022/09/26 06:00:27;;;;;;;5.05;1.10;;;16.50;91.10;;;;;;5016788;28;20458;-71
2022/09/26 06:02:57;;;;;;;3.45;1.02;;;16.60;92.40;;;;;;5009757;28;20173;-70
2022/09/26 06:05:23;;;;;;;4.18;1.48;;;16.60;91.10;;;;;;5029789;28;20033;-70
2022/09/26 06:07:49;;;;;;;3.13;0.95;;;16.70;90.90;;;;;;5025718;28;20022;-70
2022/09/26 06:10:15;;;;;;;3.50;1.50;;;16.60;90.90;;;;;;5022172;28;20470;-70
2022/09/26 06:12:41;;;;;;;4.40;0.95;;;16.70;90.90;;;;;;5014276;28;20024;-70
2022/09/26 06:15:08;;;;;;;2.22;1.10;;;16.70;91.00;;;;;;5018996;28;20044;-70
2022/09/26 06:17:33;;;;;;;2.92;0.90;;;16.60;90.80;;;;;;5024337;28;20558;-69
2022/09/26 06:19:59;;;;;;;5.25;1.40;;;16.70;90.90;;;;;;5022954;28;20113;-69
2022/09/26 06:22:25;;;;;;;5.65;1.23;;;16.70;90.90;;;;;;5026321;28;20037;-68
2022/09/26 06:24:51;;;;;;;4.10;0.98;;;16.60;91.10;;;;;;5020941;28;20051;-69
2022/09/26 06:27:17;;;;;;;3.50;1.38;;;16.60;91.30;;;;;;5027612;28;20060;-69
2022/09/26 06:29:42;;;;;;;5.35;1.48;;;16.60;91.20;;;;;;5030634;28;20048;-69
2022/09/26 06:32:08;;;;;;;4.45;1.40;;;16.60;91.30;;;;;;5033501;28;20059;-69
2022/09/26 06:34:33;;;;;;;6.20;1.08;;;16.60;91.20;;;;;;5034414;28;20374;-70
2022/09/26 06:36:59;;;;;;;6.05;1.52;;;16.70;91.30;;;;;;5032588;28;20034;-70
2022/09/26 06:39:32;;;;;;;5.00;1.40;;;16.60;91.40;;;;;;5034226;28;20033;-70
2022/09/26 06:41:57;;;;;;;2.50;0.90;;;16.60;91.50;;;;;;5032588;28;20029;-69
2022/09/26 06:44:23;;;;;;;4.57;1.20;;;16.60;91.50;;;;;;5033612;28;20486;-69
2022/09/26 06:46:48;;;;;;;2.78;0.88;;;16.70;91.40;;;;;;5033736;28;20037;-69
2022/09/26 06:49:14;;;;;;;5.35;1.10;;;16.60;91.50;;;;;;5033374;28;20053;-69
2022/09/26 06:51:39;;;;;;;4.50;1.38;;;16.70;91.60;;;;;;5033816;28;20076;-70
2022/09/26 06:54:05;;;;;;;4.20;1.23;;;16.40;91.70;;;;;;5033744;28;20112;-70
2022/09/26 06:56:31;;;;;;;5.28;1.45;;;16.50;91.80;;;;;;5033417;28;20040;-70
2022/09/26 06:58:56;;;;;;;5.75;1.48;;;16.50;91.80;;;;;;5033603;28;20108;-70
2022/09/26 07:01:22;;;;;;;3.63;0.80;;;16.60;91.90;;;;;;5033105;28;20021;-71
2022/09/26 07:03:47;;;;;;;3.63;0.70;;;16.70;92.30;;;;;;5034020;28;20034;-70
2022/09/26 07:06:13;;;;;;;3.05;1.13;;;16.80;92.40;;;;;;5030838;28;20455;-70
2022/09/26 07:08:39;;;;;;;3.80;0.82;;;16.80;92.30;;;;;;5024518;28;20076;-70
2022/09/26 07:11:05;;;;;;;2.00;0.82;;;16.80;92.30;;;;;;5013537;28;20021;-70
2022/09/26 07:13:31;;;;;;;3.00;0.85;;;16.90;92.30;;;;;;5013519;28;20042;-70
2022/09/26 07:16:00;;;;;;;4.05;1.35;;;17.00;92.30;;;;;;5012143;28;20026;-70
2022/09/26 07:18:25;;;;;;;4.93;0.73;;;17.00;91.90;;;;;;5013423;28;20046;-70
2022/09/26 07:20:52;;;;;;;4.35;0.90;;;17.00;91.90;;;;;;5013684;28;20026;-70
2022/09/26 07:23:18;;;;;;;5.40;1.23;;;16.90;91.80;;;;;;5014129;28;20156;-71
2022/09/26 07:25:45;;;;;;;1.92;0.88;;;16.80;91.80;;;;;;5032053;28;20021;-70
2022/09/26 07:28:11;;;;;;;3.85;1.33;;;16.80;92.00;;;;;;5032235;28;20021;-70
2022/09/26 07:30:36;;;;;;;5.13;0.90;;;16.80;92.00;;;;;;5031266;28;20499;-70
2022/09/26 07:33:04;;;;;;;4.28;1.30;;;16.80;92.10;;;;;;5048067;28;20032;-70
2022/09/26 07:35:34;;;;;;;4.43;0.90;;;16.80;92.10;;;;;;5035555;28;20017;-70
2022/09/26 07:38:01;;;;;;;2.80;0.80;;;16.90;92.40;;;;;;5033293;28;20390;-70
2022/09/26 07:40:27;;;;;;;3.30;0.70;;;16.90;92.60;;;;;;5032099;28;20017;-71
2022/09/26 07:42:57;;;;;;;3.90;0.98;;;17.00;92.70;;;;;;5032790;28;20021;-71
2022/09/26 07:50:56;;;;;;;4.55;1.10;;;17.00;92.20;;;;;;5025332;28;20061;-71
2022/09/26 07:53:23;;;;;;;3.90;0.70;;;17.10;92.10;;;;;;5043815;28;20021;-70
2022/09/26 07:58:40;;;;;;;5.50;0.85;;;17.20;92.20;;;;;;5042778;28;20504;-70
2022/09/26 08:01:14;;;;;;;3.55;1.20;;;17.10;92.20;;;;;;5029028;28;20033;-70
2022/09/26 08:03:41;;;;;;;4.90;1.60;;;17.10;92.30;;;;;;5038701;28;20028;-70
2022/09/26 08:06:07;;;;;;;6.35;1.50;;;17.10;92.40;;;;;;5039818;28;20451;-70
2022/09/26 08:08:34;;;;;;;6.50;1.17;;;17.00;92.00;;;;;;5035032;28;20113;-69
2022/09/26 08:11:00;;;;;;;5.88;1.45;;;17.00;92.00;;;;;;5029375;28;20072;-70
2022/09/26 08:13:28;;;;;;;5.35;1.50;;;17.10;92.00;;;;;;5045865;28;20474;-70
2022/09/26 08:15:55;;;;;;;6.20;1.10;;;17.00;92.10;;;;;;5037160;28;20155;-69
2022/09/26 08:18:21;;;;;;;6.05;1.20;;;16.90;92.20;;;;;;5041777;28;20160;-69
2022/09/26 08:20:47;;;;;;;3.55;1.35;;;17.00;92.20;;;;;;5021324;28;20113;-70
2022/09/26 08:23:14;;;;;;;5.15;1.23;;;17.00;92.20;;;;;;5045338;28;20025;-70
2022/09/26 08:25:41;;;;;;;5.30;1.30;;;17.00;92.30;;;;;;5028095;28;20048;-70
2022/09/26 08:28:07;;;;;;;4.88;1.30;;;16.80;92.40;;;;;;5027418;28;20078;-69
2022/09/26 08:30:32;;;;;;;5.28;1.65;;;16.90;92.50;;;;;;5039273;28;20021;-69
2022/09/26 08:32:59;;;;;;;5.50;1.15;;;17.00;92.50;;;;;;5040616;28;20061;-69
2022/09/26 08:35:25;;;;;;;4.40;1.27;;;17.00;92.60;;;;;;5046390;28;20029;-70
2022/09/26 08:37:51;;;;;;;7.07;1.63;;;17.10;92.50;;;;;;5023116;28;20021;-70
2022/09/26 08:40:17;;;;;;;7.63;1.83;;;17.10;92.70;;;;;;5041518;28;20033;-69
2022/09/26 08:43:03;;;;;;;5.97;1.48;;;17.10;92.90;;;;;;5044347;28;20018;-69
2022/09/26 08:48:57;;;;;;;5.60;1.15;;;17.10;93.20;;;;;;5039855;28;20119;-70
2022/09/26 08:51:34;;;;;;;7.05;1.40;;;17.20;93.20;;;;;;5029440;28;20022;-71
2022/09/26 08:54:11;;;;;;;8.82;1.83;;;17.20;93.30;;;;;;5032373;28;20025;-71
2022/09/26 08:56:45;;;;;;;12.38;2.83;;;17.00;93.90;;;;;;5039355;28;20021;-71
2022/09/26 08:59:19;;;;;;;10.30;2.65;;;16.90;94.70;;;;;;5041043;28;20033;-71
2022/09/26 09:01:46;;;;;;;11.45;3.72;;;17.00;94.70;;;;;;5050026;28;20017;-71
2022/09/26 09:04:21;;;;;;;7.55;2.20;;;17.00;95.40;;;;;;5042709;28;20012;-71
2022/09/26 09:06:53;;;;;;;8.68;2.88;;;17.00;96.00;;;;;;5020168;28;20083;-71
2022/09/26 09:09:18;;;;;;;11.13;3.37;;;16.90;96.50;;;;;;5048703;28;20037;-71
2022/09/26 09:11:56;;;;;;;10.13;3.25;;;17.00;97.00;;;;;;5026597;28;20013;-71
2022/09/26 09:14:40;;;;;;;9.82;3.38;;;16.90;97.60;;;;;;5043271;28;20025;-70
2022/09/26 09:17:12;;;;;;;10.48;4.35;;;17.00;97.50;;;;;;5050824;28;20414;-70
2022/09/26 09:20:05;;;;;;;13.23;3.80;;;17.00;98.10;;;;;;5055271;28;20029;-71
2022/09/26 09:22:34;;;;;;;11.57;5.32;;;17.10;99.00;;;;;;5035996;28;20467;-71
2022/09/26 09:25:02;;;;;;;15.57;6.05;;;17.10;99.90;;;;;;5015438;28;20121;-71
2022/09/26 09:27:45;;;;;;;10.60;4.97;;;17.20;99.90;;;;;;5016244;28;20486;-71
2022/09/26 09:30:24;;;;;;;10.23;3.88;;;17.20;99.90;;;;;;5030112;28;20028;-71
2022/09/26 09:32:52;;;;;;;7.80;3.20;;;17.20;99.80;;;;;;5035801;28;20499;-71
2022/09/26 09:35:34;;;;;;;9.85;3.55;;;17.20;99.10;;;;;;5033117;28;20033;-71
2022/09/26 09:38:01;;;;;;;8.85;3.30;;;17.10;99.20;;;;;;5023787;28;20072;-71
2022/09/26 09:40:32;;;;;;;9.00;3.20;;;17.00;98.80;;;;;;5034379;28;20032;-71
2022/09/26 09:43:06;;;;;;;13.18;3.72;;;17.00;98.90;;;;;;5019904;28;20100;-71
2022/09/26 09:45:48;;;;;;;13.15;6.03;;;17.00;99.00;;;;;;5015125;28;20033;-71
2022/09/26 09:48:14;;;;;;;9.70;4.20;;;17.00;99.00;;;;;;5015173;28;20498;-71
2022/09/26 09:50:52;;;;;;;9.93;2.80;;;17.00;98.80;;;;;;5015005;28;20022;-71
2022/09/26 09:53:44;;;;;;;11.18;2.85;;;17.10;98.70;;;;;;5015380;28;20068;-71
2022/09/26 09:56:37;;;;;;;8.70;2.85;;;17.10;98.60;;;;;;5014648;28;20510;-71
2022/09/26 09:59:18;;;;;;;4.57;2.40;;;17.10;98.50;;;;;;5014847;28;20045;-71
2022/09/26 10:01:47;;;;;;;6.93;2.83;;;17.10;98.40;;;;;;5017581;28;20036;-71
2022/09/26 10:04:22;;;;;;;6.75;2.20;;;16.90;98.70;;;;;;5026018;28;20021;-71
2022/09/26 10:06:49;;;;;;;4.13;1.95;;;17.00;98.40;;;;;;5020118;28;20030;-71
2022/09/26 10:09:26;;;;;;;7.10;2.38;;;16.90;98.60;;;;;;5014369;28;20029;-71
2022/09/26 10:11:53;;;;;;;6.43;2.30;;;16.90;98.40;;;;;;5014559;28;20033;-71
2022/09/26 10:14:29;;;;;;;9.65;2.88;;;17.00;98.20;;;;;;5026240;28;20471;-71
2022/09/26 10:17:10;;;;;;;8.45;2.50;;;17.10;98.50;;;;;;5022995;28;20483;-71
2022/09/26 10:19:39;;;;;;;6.72;2.30;;;17.20;98.70;;;;;;5034287;28;20108;-71
2022/09/26 10:22:13;;;;;;;7.28;2.30;;;17.20;99.10;;;;;;5017966;28;20097;-71
2022/09/26 10:24:42;;;;;;;6.53;2.33;;;17.20;98.90;;;;;;5014363;28;20034;-71
2022/09/26 10:27:31;;;;;;;7.03;2.05;;;17.30;98.80;;;;;;5014017;28;20033;-71
2022/09/26 10:30:02;;;;;;;7.28;1.55;;;17.30;99.00;;;;;;5025254;28;20029;-71
2022/09/26 10:32:29;;;;;;;11.17;2.23;;;17.30;98.90;;;;;;5031228;28;20025;-70
2022/09/26 10:35:17;;;;;;;6.63;1.98;;;17.30;98.80;;;;;;5023173;28;20017;-71
2022/09/26 10:37:48;;;;;;;5.47;1.40;;;17.30;98.50;;;;;;5033873;28;20037;-70
2022/09/26 10:40:45;;;;;;;3.78;1.20;;;17.30;98.40;;;;;;5019105;28;20022;-70
2022/09/26 10:43:29;;;;;;;5.95;1.65;;;17.40;98.10;;;;;;5033331;28;20108;-70
2022/09/26 10:46:17;;;;;;;5.30;1.70;;;17.40;97.80;;;;;;5038137;28;20494;-70
2022/09/26 10:48:47;;;;;;;4.88;1.45;;;17.40;97.50;;;;;;5033667;28;20052;-70
2022/09/26 10:51:25;;;;;;;3.38;1.20;;;17.40;97.40;;;;;;5024396;28;20024;-70
2022/09/26 10:54:20;;;;;;;2.75;1.35;;;17.40;97.30;;;;;;5024746;28;20505;-71
2022/09/26 10:56:49;;;;;;;2.33;1.17;;;17.40;97.10;;;;;;5029766;28;20080;-70
2022/09/26 10:59:18;;;;;;;3.92;1.40;;;17.40;97.10;;;;;;5020498;28;20039;-71
2022/09/26 11:01:54;;;;;;;2.63;1.20;;;17.40;97.00;;;;;;5017732;28;20033;-71
2022/09/26 11:07:09;;;;;;;2.65;1.23;;;17.20;96.80;;;;;;5033598;28;20048;-71
2022/09/26 11:09:37;;;;;;;5.93;1.00;;;17.30;96.70;;;;;;5033041;28;20032;-71
2022/09/26 11:12:26;;;;;;;3.28;1.40;;;17.20;96.90;;;;;;5031919;28;20021;-71
2022/09/26 11:14:58;;;;;;;2.60;1.15;;;17.30;97.00;;;;;;5033374;28;20034;-71
2022/09/26 11:17:43;;;;;;;4.82;1.17;;;17.30;96.90;;;;;;5033330;28;20045;-71
2022/09/26 11:20:17;;;;;;;2.83;0.90;;;17.30;97.00;;;;;;5033005;28;20088;-71
2022/09/26 11:22:50;;;;;;;3.50;0.95;;;17.30;97.00;;;;;;5032435;28;20025;-71
2022/09/26 11:25:25;;;;;;;1.83;0.93;;;17.30;96.90;;;;;;5033641;28;20024;-71
2022/09/26 11:28:04;;;;;;;4.95;1.20;;;17.20;97.20;;;;;;5033147;28;20029;-71
2022/09/26 11:30:34;;;;;;;3.97;1.20;;;17.20;97.00;;;;;;5033161;28;20033;-71
2022/09/26 11:33:04;;;;;;;3.53;1.25;;;17.20;97.00;;;;;;5033053;28;20021;-71
2022/09/26 11:35:48;;;;;;;1.58;0.90;;;17.20;97.10;;;;;;5033306;28;20426;-71
2022/09/26 11:38:46;;;;;;;2.38;0.90;;;17.10;97.00;;;;;;5032837;28;20029;-71
2022/09/26 11:41:49;;;;;;;2.28;1.00;;;17.20;96.90;;;;;;5033124;28;20056;-70
2022/09/26 11:44:16;;;;;;;2.97;1.17;;;17.30;96.70;;;;;;5033353;28;20037;-71
2022/09/26 11:46:58;;;;;;;3.80;0.85;;;17.20;96.80;;;;;;5033056;28;20033;-70
2022/09/26 11:49:44;;;;;;;2.72;1.05;;;17.10;96.90;;;;;;5032984;28;20028;-70
2022/09/26 11:52:29;;;;;;;6.05;1.25;;;17.00;96.90;;;;;;5032752;28;20052;-71
2022/09/26 11:55:15;;;;;;;4.20;1.15;;;17.10;97.00;;;;;;5033059;28;20048;-71
2022/09/26 11:58:02;;;;;;;2.88;1.15;;;17.10;96.90;;;;;;5032612;28;20057;-71
2022/09/26 12:00:42;;;;;;;2.45;0.90;;;17.10;96.90;;;;;;5032694;28;20060;-71
2022/09/26 12:03:32;;;;;;;1.75;0.85;;;17.20;96.90;;;;;;5032911;28;20022;-71
2022/09/26 12:06:30;;;;;;;3.38;1.10;;;17.10;96.80;;;;;;5031148;28;20364;-70
2022/09/26 12:09:23;;;;;;;2.45;1.00;;;17.20;96.80;;;;;;5032695;28;20025;-70
2022/09/26 12:12:08;;;;;;;3.05;1.35;;;17.20;96.90;;;;;;5032784;28;20022;-71
2022/09/26 12:14:49;;;;;;;2.08;1.45;;;17.20;96.90;;;;;;5032839;28;20455;-70
2022/09/26 12:17:39;;;;;;;3.60;1.55;;;17.10;97.00;;;;;;5032699;28;20475;-70
2022/09/26 12:20:24;;;;;;;4.78;1.40;;;17.10;97.40;;;;;;5032472;28;20091;-71
2022/09/26 12:22:58;;;;;;;4.38;1.45;;;17.00;97.50;;;;;;5032881;28;20032;-70
2022/09/26 12:25:30;;;;;;;3.70;1.50;;;17.10;97.70;;;;;;5032445;28;20036;-70
2022/09/26 12:28:09;;;;;;;2.75;1.30;;;17.20;97.50;;;;;;5032615;28;20025;-70
2022/09/26 12:30:50;;;;;;;3.25;1.50;;;17.10;97.60;;;;;;5032372;28;20025;-71
2022/09/26 12:33:33;;;;;;;3.00;1.67;;;17.20;97.60;;;;;;5033224;28;20029;-69
2022/09/26 12:36:25;;;;;;;3.63;1.30;;;17.10;97.80;;;;;;5036076;28;20272;-70
2022/09/26 12:39:10;;;;;;;2.50;1.33;;;17.00;97.90;;;;;;5035301;28;20482;-71
2022/09/26 12:41:54;;;;;;;2.25;1.45;;;17.10;97.90;;;;;;5036403;28;20025;-70
2022/09/26 12:44:47;;;;;;;3.40;2.17;;;17.10;97.90;;;;;;5036171;28;20095;-71
2022/09/26 12:47:18;;;;;;;;;;;16.90;98.10;;;;;;5036607;28;20045;-71
2022/09/26 12:49:57;;;;;;;2.38;1.13;;;17.20;97.70;;;;;;5034480;28;19905;-71
2022/09/26 12:52:28;;;;;;;2.63;1.27;;;17.20;97.60;;;;;;5036184;28;20029;-71
2022/09/26 12:55:01;;;;;;;1.80;1.20;;;17.10;97.80;;;;;;5035687;28;20112;-71
2022/09/26 12:57:42;;;;;;;2.42;1.10;;;17.10;98.00;;;;;;5036202;28;20065;-71
2022/09/26 13:00:19;;;;;;;1.77;0.95;;;17.10;97.90;;;;;;5035859;28;20167;-71
2022/09/26 13:03:08;;;;;;;3.08;1.25;;;17.20;97.70;;;;;;5036175;28;20026;-72
2022/09/26 13:05:55;;;;;;;2.20;1.02;;;17.10;98.10;;;;;;5035458;28;20022;-71
2022/09/26 13:08:30;;;;;;;1.30;0.77;;;17.10;97.90;;;;;;5035635;28;20071;-70
2022/09/26 13:11:03;;;;;;;5.25;1.20;;;17.30;97.80;;;;;;5035649;28;20347;-71
2022/09/26 13:13:47;;;;;;;3.42;1.00;;;17.20;98.00;;;;;;5035746;28;20091;-70
2022/09/26 13:16:47;;;;;;;1.98;0.88;;;17.10;98.20;;;;;;5035428;28;20037;-71
2022/09/26 13:19:34;;;;;;;3.53;1.15;;;17.20;98.00;;;;;;5030168;28;20037;-71
2022/09/26 13:22:08;;;;;;;1.20;0.70;;;17.10;98.10;;;;;;5030941;28;20028;-71
2022/09/26 13:24:48;;;;;;;1.20;0.70;;;17.20;97.90;;;;;;5022083;28;20394;-71
2022/09/26 13:27:19;;;;;;;1.60;0.93;;;17.20;98.10;;;;;;5029434;28;20037;-71
2022/09/26 13:29:53;;;;;;;1.90;0.85;;;17.00;98.20;;;;;;5018464;28;20029;-71